createdAt,value
2022-10-26T00:00:40.857Z,1.00
2022-10-26T00:01:45.351Z,1.00
2022-10-26T00:02:49.916Z,1.00
2022-10-26T00:03:54.649Z,1.00
2022-10-26T00:04:59.211Z,1.00
2022-10-26T00:06:03.521Z,0.00
2022-10-26T00:07:07.937Z,0.50
2022-10-26T00:08:12.345Z,0.00
2022-10-26T00:09:16.738Z,0.00
2022-10-26T00:10:21.269Z,0.00
2022-10-26T00:11:25.474Z,2.00
2022-10-26T00:12:29.895Z,1.50
2022-10-26T00:13:34.095Z,0.00
2022-10-26T00:14:38.702Z,0.50
2022-10-26T00:15:43.216Z,0.50
2022-10-26T00:16:47.510Z,0.50
2022-10-26T00:17:52.042Z,0.50
2022-10-26T00:18:56.431Z,0.75
2022-10-26T00:20:00.523Z,1.00
2022-10-26T00:21:04.875Z,0.50
2022-10-26T00:22:09.270Z,0.50
2022-10-26T00:23:13.564Z,0.50
2022-10-26T00:25:21.892Z,0.25
2022-10-26T00:26:26.227Z,1.00
2022-10-26T00:27:30.707Z,1.00
2022-10-26T00:28:35.128Z,0.00
2022-10-26T00:29:39.433Z,0.50
2022-10-26T00:30:43.739Z,1.75
2022-10-26T00:31:48.049Z,1.50
2022-10-26T00:32:52.379Z,0.00
2022-10-26T00:33:56.667Z,0.00
2022-10-26T00:35:10.440Z,0.50
2022-10-26T00:36:06.408Z,0.50
2022-10-26T00:37:10.373Z,0.50
2022-10-26T00:38:14.931Z,0.00
2022-10-26T00:39:19.008Z,0.25
2022-10-26T00:40:23.333Z,0.25
2022-10-26T00:41:28.674Z,0.25
2022-10-26T00:42:33.078Z,1.00
2022-10-26T00:43:37.279Z,1.00
2022-10-26T00:44:41.708Z,0.75
2022-10-26T00:45:46.199Z,0.50
2022-10-26T00:46:50.429Z,0.50
2022-10-26T00:47:54.824Z,0.50
2022-10-26T00:48:59.230Z,1.00
2022-10-26T00:50:03.542Z,1.00
2022-10-26T00:51:07.720Z,1.25
2022-10-26T00:52:12.048Z,1.00
2022-10-26T00:53:16.260Z,0.00
2022-10-26T00:54:20.782Z,0.50
2022-10-26T00:55:24.872Z,0.50
2022-10-26T00:56:29.167Z,0.00
2022-10-26T00:57:33.527Z,0.50
2022-10-26T00:58:37.797Z,0.50
2022-10-26T00:59:42.015Z,0.00
2022-10-26T01:00:46.415Z,1.25
2022-10-26T01:01:50.591Z,1.00
2022-10-26T01:02:54.828Z,1.50
2022-10-26T01:03:59.068Z,1.50
2022-10-26T01:05:03.252Z,1.00
2022-10-26T01:06:07.767Z,0.50
2022-10-26T01:07:12.102Z,0.50
2022-10-26T01:08:16.400Z,0.00
2022-10-26T01:09:20.887Z,0.00
2022-10-26T01:10:25.115Z,0.50
2022-10-26T01:11:29.701Z,0.50
2022-10-26T01:12:34.010Z,0.00
2022-10-26T01:13:38.628Z,0.00
2022-10-26T01:14:43.652Z,0.50
2022-10-26T01:15:47.897Z,0.00
2022-10-26T01:16:52.414Z,0.00
2022-10-26T01:17:56.544Z,0.00
2022-10-26T01:19:00.991Z,0.00
2022-10-26T01:20:05.130Z,0.00
2022-10-26T01:21:09.629Z,0.00
2022-10-26T01:22:14.222Z,0.00
2022-10-26T01:23:18.530Z,0.00
2022-10-26T01:24:22.720Z,0.25
2022-10-26T01:25:26.938Z,0.00
2022-10-26T01:26:31.346Z,0.00
2022-10-26T01:27:35.613Z,0.00
2022-10-26T01:28:40.068Z,1.00
2022-10-26T01:29:44.211Z,0.00
2022-10-26T01:30:48.587Z,0.00
2022-10-26T01:31:52.890Z,0.00
2022-10-26T01:32:57.202Z,0.00
2022-10-26T01:34:01.609Z,0.00
2022-10-26T01:35:05.895Z,0.00
2022-10-26T01:36:10.333Z,0.00
2022-10-26T01:37:14.644Z,0.00
2022-10-26T01:38:18.951Z,0.00
2022-10-26T01:39:23.457Z,1.00
2022-10-26T01:40:27.871Z,0.50
2022-10-26T01:41:32.173Z,0.00
2022-10-26T01:42:36.482Z,0.75
2022-10-26T01:43:40.892Z,0.50
2022-10-26T01:44:45.206Z,0.00
2022-10-26T01:45:49.733Z,0.00
2022-10-26T01:46:54.257Z,0.00
2022-10-26T01:47:58.750Z,0.50
2022-10-26T01:49:03.249Z,0.00
2022-10-26T01:50:07.969Z,0.00
2022-10-26T01:51:11.742Z,0.00
2022-10-26T01:52:16.173Z,0.00
2022-10-26T01:53:20.595Z,0.00
2022-10-26T01:54:24.926Z,0.00
2022-10-26T01:55:29.310Z,0.50
2022-10-26T01:56:33.732Z,0.00
2022-10-26T01:57:38.017Z,0.00
2022-10-26T01:58:42.640Z,0.00
2022-10-26T01:59:46.790Z,0.00
2022-10-26T02:00:51.259Z,0.00
2022-10-26T02:01:55.784Z,0.00
2022-10-26T02:03:00.087Z,0.75
2022-10-26T02:04:04.555Z,0.50
2022-10-26T02:05:09.414Z,0.00
2022-10-26T02:06:14.236Z,0.00
2022-10-26T02:07:18.478Z,0.00
2022-10-26T02:08:22.853Z,0.00
2022-10-26T02:09:27.064Z,0.00
2022-10-26T02:10:31.483Z,0.00
2022-10-26T02:11:36.085Z,0.00
2022-10-26T02:12:40.291Z,0.00
2022-10-26T02:13:44.579Z,0.00
2022-10-26T02:14:48.708Z,0.00
2022-10-26T02:15:53.332Z,0.00
2022-10-26T02:16:57.942Z,0.00
2022-10-26T02:18:02.139Z,1.00
2022-10-26T02:19:06.553Z,1.00
2022-10-26T02:20:11.060Z,0.50
2022-10-26T02:21:15.778Z,0.50
2022-10-26T02:22:19.854Z,0.50
2022-10-26T02:23:23.969Z,1.00
2022-10-26T02:24:28.219Z,1.00
2022-10-26T02:25:32.293Z,0.50
2022-10-26T02:26:36.533Z,0.25
2022-10-26T02:27:40.697Z,0.00
2022-10-26T02:28:45.016Z,0.00
2022-10-26T02:29:49.424Z,0.75
2022-10-26T02:30:53.743Z,0.50
2022-10-26T02:31:57.938Z,0.50
2022-10-26T02:33:01.911Z,0.00
2022-10-26T02:34:06.149Z,0.00
2022-10-26T02:35:10.662Z,0.00
2022-10-26T02:36:15.071Z,0.25
2022-10-26T02:37:19.681Z,0.00
2022-10-26T02:38:24.004Z,0.00
2022-10-26T02:39:28.404Z,0.50
2022-10-26T02:40:32.716Z,1.00
2022-10-26T02:41:37.127Z,1.00
2022-10-26T02:42:41.535Z,1.00
2022-10-26T02:43:45.410Z,1.00
2022-10-26T02:44:49.645Z,0.00
2022-10-26T02:45:53.945Z,0.00
2022-10-26T02:46:58.257Z,0.00
2022-10-26T02:48:02.677Z,0.00
2022-10-26T02:49:06.855Z,0.00
2022-10-26T02:50:11.186Z,0.00
2022-10-26T02:51:15.459Z,1.00
2022-10-26T02:52:19.493Z,0.00
2022-10-26T02:53:23.600Z,0.50
2022-10-26T02:54:28.105Z,0.50
2022-10-26T02:55:32.139Z,0.00
2022-10-26T02:56:36.324Z,0.00
2022-10-26T02:57:40.604Z,0.00
2022-10-26T02:58:45.134Z,0.00
2022-10-26T02:59:49.552Z,0.00
2022-10-26T03:00:53.954Z,0.00
2022-10-26T03:01:58.473Z,0.00
2022-10-26T03:03:02.980Z,0.00
2022-10-26T03:04:07.164Z,0.00
2022-10-26T03:05:11.061Z,0.00
2022-10-26T03:06:15.175Z,0.00
2022-10-26T03:07:19.387Z,0.00
2022-10-26T03:08:23.527Z,0.00
2022-10-26T03:09:27.912Z,0.50
2022-10-26T03:10:32.017Z,0.50
2022-10-26T03:11:36.216Z,0.00
2022-10-26T03:12:40.627Z,0.50
2022-10-26T03:13:44.962Z,0.00
2022-10-26T03:14:49.018Z,0.00
2022-10-26T03:15:53.155Z,0.00
2022-10-26T03:16:57.162Z,0.50
2022-10-26T03:18:01.253Z,0.00
2022-10-26T03:19:05.353Z,0.00
2022-10-26T03:20:09.558Z,0.00
2022-10-26T03:21:15.096Z,0.00
2022-10-26T03:22:19.401Z,0.00
2022-10-26T03:23:23.701Z,0.50
2022-10-26T03:24:27.920Z,1.00
2022-10-26T03:25:33.122Z,0.75
2022-10-26T03:26:37.660Z,0.50
2022-10-26T03:27:42.166Z,1.00
2022-10-26T03:28:46.785Z,0.50
2022-10-26T03:29:51.213Z,1.00
2022-10-26T03:30:55.408Z,0.50
2022-10-26T03:31:59.303Z,1.00
2022-10-26T03:33:03.622Z,1.00
2022-10-26T03:34:08.229Z,1.00
2022-10-26T03:35:12.646Z,0.25
2022-10-26T03:36:17.073Z,0.50
2022-10-26T03:37:21.249Z,0.00
2022-10-26T03:38:25.562Z,0.00
2022-10-26T03:39:30.192Z,0.50
2022-10-26T03:40:34.415Z,1.00
2022-10-26T03:41:38.898Z,0.25
2022-10-26T03:42:43.315Z,0.00
2022-10-26T03:43:47.918Z,1.00
2022-10-26T03:44:52.527Z,1.50
2022-10-26T03:45:56.943Z,0.00
2022-10-26T03:47:01.171Z,0.75
2022-10-26T03:48:05.466Z,1.00
2022-10-26T03:49:09.748Z,1.00
2022-10-26T03:50:13.777Z,1.00
2022-10-26T03:51:17.873Z,1.00
2022-10-26T03:52:22.388Z,1.00
2022-10-26T03:53:26.592Z,0.50
2022-10-26T03:54:31.211Z,0.00
2022-10-26T03:55:35.713Z,0.50
2022-10-26T03:56:40.041Z,0.50
2022-10-26T03:57:44.244Z,1.00
2022-10-26T03:58:48.352Z,0.50
2022-10-26T03:59:52.344Z,0.50
2022-10-26T04:00:56.444Z,1.00
2022-10-26T04:02:00.313Z,0.50
2022-10-26T04:03:04.410Z,1.00
2022-10-26T04:04:08.514Z,0.00
2022-10-26T04:05:12.853Z,0.00
2022-10-26T04:06:17.058Z,0.00
2022-10-26T04:07:21.378Z,1.00
2022-10-26T04:08:25.287Z,1.00
2022-10-26T04:09:29.657Z,0.50
2022-10-26T04:10:33.680Z,0.50
2022-10-26T04:11:37.993Z,1.00
2022-10-26T04:12:42.501Z,0.50
2022-10-26T04:13:46.812Z,0.50
2022-10-26T04:14:51.057Z,2.00
2022-10-26T04:15:55.122Z,1.75
2022-10-26T04:16:59.151Z,1.00
2022-10-26T04:18:03.428Z,1.00
2022-10-26T04:19:07.840Z,1.50
2022-10-26T04:20:12.044Z,1.00
2022-10-26T04:21:16.052Z,0.50
2022-10-26T04:22:20.253Z,0.50
2022-10-26T04:24:29.588Z,1.00
2022-10-26T04:25:33.822Z,0.50
2022-10-26T04:26:38.104Z,0.00
2022-10-26T04:27:42.719Z,0.50
2022-10-26T04:28:47.025Z,0.00
2022-10-26T04:29:51.431Z,0.50
2022-10-26T04:30:55.543Z,1.00
2022-10-26T04:31:59.750Z,0.25
2022-10-26T04:33:04.158Z,1.00
2022-10-26T04:34:08.767Z,0.00
2022-10-26T04:35:15.332Z,0.50
2022-10-26T04:36:18.443Z,0.50
2022-10-26T04:37:22.594Z,0.00
2022-10-26T04:38:26.503Z,0.00
2022-10-26T04:39:30.862Z,0.50
2022-10-26T04:40:35.055Z,0.25
2022-10-26T04:41:39.399Z,1.00
2022-10-26T04:42:43.851Z,0.75
2022-10-26T04:43:48.055Z,0.00
2022-10-26T04:44:52.155Z,0.50
2022-10-26T04:45:56.290Z,0.25
2022-10-26T04:47:00.758Z,0.00
2022-10-26T04:48:05.018Z,0.00
2022-10-26T04:49:09.490Z,1.00
2022-10-26T04:50:14.213Z,2.00
2022-10-26T04:51:18.548Z,1.00
2022-10-26T04:52:22.810Z,0.00
2022-10-26T04:53:26.710Z,0.75
2022-10-26T04:54:30.938Z,0.00
2022-10-26T04:55:35.145Z,0.25
2022-10-26T04:56:39.284Z,1.00
2022-10-26T04:57:43.642Z,1.00
2022-10-26T04:58:47.859Z,1.00
2022-10-26T04:59:52.370Z,0.50
2022-10-26T05:00:57.058Z,0.25
2022-10-26T05:02:01.558Z,0.50
2022-10-26T05:03:05.908Z,1.00
2022-10-26T05:04:10.114Z,1.25
2022-10-26T05:05:15.263Z,0.75
2022-10-26T05:06:19.965Z,0.50
2022-10-26T05:07:24.479Z,0.00
2022-10-26T05:08:28.990Z,0.50
2022-10-26T05:09:33.399Z,0.50
2022-10-26T05:10:37.610Z,0.75
2022-10-26T05:11:42.019Z,1.00
2022-10-26T05:12:46.433Z,1.00
2022-10-26T05:13:50.840Z,0.50
2022-10-26T05:14:54.936Z,1.00
2022-10-26T05:15:59.353Z,0.50
2022-10-26T05:17:03.660Z,0.00
2022-10-26T05:18:08.042Z,0.00
2022-10-26T05:19:12.503Z,0.50
2022-10-26T05:20:16.785Z,0.00
2022-10-26T05:21:20.994Z,0.00
2022-10-26T05:22:25.094Z,0.50
2022-10-26T05:23:29.109Z,1.00
2022-10-26T05:24:33.401Z,1.00
2022-10-26T05:25:37.660Z,1.00
2022-10-26T05:26:41.613Z,1.50
2022-10-26T05:27:45.615Z,0.00
2022-10-26T05:28:49.929Z,1.00
2022-10-26T05:29:53.959Z,0.50
2022-10-26T05:30:58.331Z,0.00
2022-10-26T05:32:02.226Z,0.00
2022-10-26T05:33:06.262Z,0.75
2022-10-26T05:34:10.342Z,0.00
2022-10-26T05:35:14.550Z,0.00
2022-10-26T05:36:18.610Z,0.50
2022-10-26T05:37:22.859Z,0.50
2022-10-26T05:39:31.159Z,1.00
2022-10-26T05:40:35.578Z,1.50
2022-10-26T05:41:39.896Z,1.00
2022-10-26T05:42:43.988Z,1.00
2022-10-26T05:43:48.295Z,0.75
2022-10-26T05:44:52.630Z,0.00
2022-10-26T05:45:57.025Z,0.00
2022-10-26T05:47:01.222Z,0.50
2022-10-26T05:48:05.427Z,1.00
2022-10-26T05:49:09.630Z,0.50
2022-10-26T05:50:13.944Z,0.50
2022-10-26T05:51:18.114Z,0.50
2022-10-26T05:52:22.245Z,0.00
2022-10-26T05:53:26.350Z,0.50
2022-10-26T05:54:30.767Z,0.50
2022-10-26T05:55:34.871Z,0.00
2022-10-26T05:56:39.077Z,0.00
2022-10-26T05:57:43.686Z,0.00
2022-10-26T05:58:48.202Z,0.00
2022-10-26T05:59:52.453Z,0.50
2022-10-26T06:00:56.812Z,1.00
2022-10-26T06:02:00.997Z,1.00
2022-10-26T06:03:05.293Z,0.50
2022-10-26T06:04:09.547Z,0.00
2022-10-26T06:05:13.942Z,0.00
2022-10-26T06:06:18.359Z,1.00
2022-10-26T06:07:22.661Z,0.50
2022-10-26T06:08:27.108Z,0.50
2022-10-26T06:09:31.087Z,0.00
2022-10-26T06:10:35.385Z,0.50
2022-10-26T06:11:39.952Z,0.50
2022-10-26T06:12:44.407Z,0.25
2022-10-26T06:13:48.622Z,0.50
2022-10-26T06:14:52.516Z,1.00
2022-10-26T06:15:56.926Z,0.25
2022-10-26T06:17:01.240Z,0.00
2022-10-26T06:18:05.276Z,0.50
2022-10-26T06:19:09.958Z,0.50
2022-10-26T06:21:17.875Z,0.25
2022-10-26T06:22:21.985Z,0.00
2022-10-26T06:23:26.158Z,0.00
2022-10-26T06:24:30.470Z,0.00
2022-10-26T06:25:34.776Z,0.50
2022-10-26T06:26:38.990Z,0.50
2022-10-26T06:27:43.697Z,0.50
2022-10-26T06:28:50.034Z,0.00
2022-10-26T06:29:54.475Z,0.00
2022-10-26T06:30:58.779Z,0.50
2022-10-26T06:32:03.081Z,0.50
2022-10-26T06:33:18.243Z,0.50
2022-10-26T06:34:12.626Z,0.50
2022-10-26T06:35:16.898Z,0.75
2022-10-26T06:36:21.142Z,0.50
2022-10-26T06:37:25.548Z,1.50
2022-10-26T06:38:30.064Z,1.00
2022-10-26T06:39:34.573Z,0.75
2022-10-26T06:40:38.882Z,1.00
2022-10-26T06:41:43.290Z,1.25
2022-10-26T06:42:47.722Z,0.25
2022-10-26T06:43:52.010Z,0.50
2022-10-26T06:44:56.339Z,1.00
2022-10-26T06:46:00.851Z,0.50
2022-10-26T06:47:05.346Z,0.75
2022-10-26T06:48:09.866Z,1.00
2022-10-26T06:49:13.902Z,1.00
2022-10-26T06:50:18.156Z,1.00
2022-10-26T06:51:22.177Z,0.00
2022-10-26T06:52:26.584Z,0.25
2022-10-26T06:53:30.620Z,1.00
2022-10-26T06:54:35.201Z,0.75
2022-10-26T06:55:39.605Z,0.75
2022-10-26T06:56:43.808Z,1.00
2022-10-26T06:57:48.236Z,1.00
2022-10-26T06:58:52.747Z,1.00
2022-10-26T06:59:56.844Z,0.75
2022-10-26T07:01:01.258Z,1.00
2022-10-26T07:02:06.542Z,0.50
2022-10-26T07:03:10.887Z,1.00
2022-10-26T07:04:14.928Z,0.75
2022-10-26T07:05:19.206Z,0.50
2022-10-26T07:06:23.399Z,0.00
2022-10-26T07:07:27.614Z,0.00
2022-10-26T07:08:31.793Z,0.00
2022-10-26T07:09:35.941Z,0.00
2022-10-26T07:10:40.329Z,0.50
2022-10-26T07:11:44.542Z,1.00
2022-10-26T07:12:48.743Z,1.00
2022-10-26T07:13:53.260Z,0.50
2022-10-26T07:14:57.392Z,0.50
2022-10-26T07:16:01.566Z,0.00
2022-10-26T07:17:05.769Z,0.50
2022-10-26T07:18:09.881Z,0.50
2022-10-26T07:19:14.192Z,0.00
2022-10-26T07:20:18.495Z,0.00
2022-10-26T07:21:24.529Z,0.00
2022-10-26T07:22:29.059Z,0.00
2022-10-26T07:23:33.176Z,0.50
2022-10-26T07:24:37.584Z,1.00
2022-10-26T07:25:41.883Z,0.50
2022-10-26T07:26:46.491Z,0.25
2022-10-26T07:27:51.315Z,0.00
2022-10-26T07:28:55.718Z,0.00
2022-10-26T07:30:00.438Z,0.25
2022-10-26T07:31:04.746Z,1.00
2022-10-26T07:32:09.161Z,0.50
2022-10-26T07:33:13.671Z,0.00
2022-10-26T07:34:17.775Z,0.25
2022-10-26T07:35:21.981Z,0.00
2022-10-26T07:36:26.389Z,1.00
2022-10-26T07:37:30.634Z,0.50
2022-10-26T07:38:34.587Z,0.00
2022-10-26T07:39:38.732Z,0.50
2022-10-26T07:40:42.978Z,0.50
2022-10-26T07:41:47.401Z,1.00
2022-10-26T07:42:52.077Z,1.00
2022-10-26T07:43:56.587Z,1.00
2022-10-26T07:45:00.839Z,0.00
2022-10-26T07:46:04.950Z,0.50
2022-10-26T07:47:09.172Z,0.75
2022-10-26T07:48:13.580Z,1.00
2022-10-26T07:49:19.459Z,1.00
2022-10-26T07:50:22.694Z,1.00
2022-10-26T07:51:27.009Z,0.50
2022-10-26T07:52:30.876Z,0.00
2022-10-26T07:53:34.900Z,0.50
2022-10-26T07:54:39.030Z,1.00
2022-10-26T07:55:43.150Z,1.00
2022-10-26T07:56:47.123Z,0.50
2022-10-26T07:57:54.456Z,0.50
2022-10-26T07:58:56.763Z,0.00
2022-10-26T08:00:00.865Z,0.00
2022-10-26T08:01:05.277Z,0.00
2022-10-26T08:02:09.562Z,0.50
2022-10-26T08:03:13.697Z,1.50
2022-10-26T08:04:17.835Z,1.25
2022-10-26T08:05:22.036Z,1.50
2022-10-26T08:06:26.134Z,2.50
2022-10-26T08:07:30.305Z,1.50
2022-10-26T08:08:34.407Z,1.25
2022-10-26T08:09:38.715Z,1.75
2022-10-26T08:10:42.719Z,1.75
2022-10-26T08:11:47.024Z,1.00
2022-10-26T08:12:51.032Z,1.75
2022-10-26T08:13:55.240Z,1.75
2022-10-26T08:14:59.338Z,1.50
2022-10-26T08:16:03.739Z,1.50
2022-10-26T08:17:07.954Z,1.50
2022-10-26T08:18:12.064Z,1.00
2022-10-26T08:19:16.361Z,1.00
2022-10-26T08:20:20.374Z,1.00
2022-10-26T08:21:36.093Z,0.00
2022-10-26T08:22:30.009Z,1.50
2022-10-26T08:23:34.319Z,1.50
2022-10-26T08:24:38.521Z,1.50
2022-10-26T08:25:43.033Z,1.00
2022-10-26T08:26:47.242Z,1.00
2022-10-26T08:27:51.449Z,1.00
2022-10-26T08:28:55.346Z,1.00
2022-10-26T08:29:59.348Z,1.00
2022-10-26T08:31:03.654Z,1.50
2022-10-26T08:32:07.964Z,2.00
2022-10-26T08:33:11.998Z,2.00
2022-10-26T08:34:16.582Z,1.00
2022-10-26T08:35:20.785Z,1.67
2022-10-26T08:36:24.790Z,1.50
2022-10-26T08:37:28.992Z,1.50
2022-10-26T08:38:33.187Z,2.00
2022-10-26T08:39:44.986Z,2.00
2022-10-26T08:40:49.391Z,2.25
2022-10-26T08:41:53.593Z,3.00
2022-10-26T08:42:58.012Z,2.00
2022-10-26T08:44:02.113Z,1.50
2022-10-26T08:45:06.318Z,1.50
2022-10-26T08:46:10.723Z,2.50
2022-10-26T08:47:14.992Z,2.00
2022-10-26T08:48:19.343Z,2.00
2022-10-26T08:49:23.575Z,2.75
2022-10-26T08:50:27.592Z,2.50
2022-10-26T08:51:31.650Z,2.25
2022-10-26T08:52:35.861Z,2.50
2022-10-26T08:53:40.464Z,2.50
2022-10-26T08:54:44.887Z,2.00
2022-10-26T08:55:49.197Z,1.50
2022-10-26T08:56:53.600Z,2.00
2022-10-26T08:57:59.045Z,2.50
2022-10-26T08:59:03.036Z,2.00
2022-10-26T09:00:07.156Z,2.00
2022-10-26T09:01:11.610Z,2.50
2022-10-26T09:02:15.972Z,2.50
2022-10-26T09:03:21.656Z,2.00
2022-10-26T09:04:25.607Z,2.00
2022-10-26T09:05:30.443Z,2.00
2022-10-26T09:06:34.935Z,2.25
2022-10-26T09:07:39.526Z,2.50
2022-10-26T09:08:43.865Z,2.00
2022-10-26T09:09:48.294Z,2.00
2022-10-26T09:10:52.374Z,1.50
2022-10-26T09:11:56.374Z,1.50
2022-10-26T09:13:00.484Z,1.00
2022-10-26T09:14:04.788Z,1.25
2022-10-26T09:15:08.998Z,1.50
2022-10-26T09:16:13.374Z,2.00
2022-10-26T09:17:17.816Z,2.50
2022-10-26T09:18:22.224Z,2.50
2022-10-26T09:19:26.609Z,2.50
2022-10-26T09:20:30.534Z,2.00
2022-10-26T09:21:34.851Z,2.00
2022-10-26T09:22:39.058Z,2.00
2022-10-26T09:23:43.262Z,1.75
2022-10-26T09:24:47.668Z,1.00
2022-10-26T09:25:51.873Z,1.00
2022-10-26T09:26:56.143Z,1.00
2022-10-26T09:28:00.384Z,1.50
2022-10-26T09:29:05.003Z,1.00
2022-10-26T09:30:09.211Z,1.00
2022-10-26T09:31:13.313Z,1.00
2022-10-26T09:32:17.521Z,1.00
2022-10-26T09:33:21.511Z,1.00
2022-10-26T09:34:25.723Z,1.00
2022-10-26T09:36:34.129Z,1.50
2022-10-26T09:37:38.242Z,1.00
2022-10-26T09:38:42.572Z,1.00
2022-10-26T09:39:46.772Z,1.00
2022-10-26T09:40:50.852Z,1.00
2022-10-26T09:41:54.761Z,1.00
2022-10-26T09:42:58.852Z,1.00
2022-10-26T09:44:02.960Z,1.25
2022-10-26T09:45:07.061Z,1.00
2022-10-26T09:46:11.376Z,0.50
2022-10-26T09:47:15.681Z,0.50
2022-10-26T09:48:19.892Z,1.00
2022-10-26T09:49:23.860Z,1.25
2022-10-26T09:50:27.883Z,1.00
2022-10-26T09:51:32.194Z,0.50
2022-10-26T09:52:39.253Z,1.50
2022-10-26T09:53:43.689Z,2.25
2022-10-26T09:54:48.099Z,1.25
2022-10-26T09:55:52.397Z,1.25
2022-10-26T09:56:56.515Z,1.50
2022-10-26T09:58:00.413Z,2.00
2022-10-26T09:59:04.706Z,2.00
2022-10-26T10:00:08.713Z,1.50
2022-10-26T10:01:13.548Z,1.00
2022-10-26T10:02:18.149Z,2.00
2022-10-26T10:03:22.704Z,1.00
2022-10-26T10:04:27.205Z,1.50
2022-10-26T10:05:51.326Z,1.75
2022-10-26T10:06:36.518Z,1.00
2022-10-26T10:07:40.826Z,1.00
2022-10-26T10:08:45.396Z,2.00
2022-10-26T10:09:49.541Z,2.00
2022-10-26T10:10:53.744Z,2.00
2022-10-26T10:11:58.352Z,1.50
2022-10-26T10:13:02.562Z,1.50
2022-10-26T10:14:06.776Z,1.00
2022-10-26T10:15:10.731Z,1.50
2022-10-26T10:16:14.972Z,1.50
2022-10-26T10:17:19.493Z,2.00
2022-10-26T10:18:24.101Z,1.25
2022-10-26T10:19:28.303Z,0.50
2022-10-26T10:20:32.513Z,1.50
2022-10-26T10:21:36.957Z,1.25
2022-10-26T10:22:41.645Z,1.00
2022-10-26T10:23:46.159Z,1.25
2022-10-26T10:24:50.671Z,2.00
2022-10-26T10:25:55.072Z,2.00
2022-10-26T10:26:59.596Z,1.00
2022-10-26T10:28:03.708Z,1.00
2022-10-26T10:29:07.908Z,1.00
2022-10-26T10:30:12.102Z,1.00
2022-10-26T10:32:20.313Z,1.50
2022-10-26T10:33:24.315Z,1.25
2022-10-26T10:34:28.430Z,1.50
2022-10-26T10:35:32.625Z,0.75
2022-10-26T10:36:36.827Z,1.00
2022-10-26T10:37:40.832Z,0.75
2022-10-26T10:38:45.032Z,1.00
2022-10-26T10:39:49.444Z,0.50
2022-10-26T10:40:53.752Z,0.75
2022-10-26T10:42:01.450Z,0.00
2022-10-26T10:43:05.445Z,0.00
2022-10-26T10:44:09.549Z,0.25
2022-10-26T10:45:13.855Z,0.25
2022-10-26T10:46:18.338Z,0.00
2022-10-26T10:47:22.784Z,0.50
2022-10-26T10:48:27.160Z,1.00
2022-10-26T10:49:31.186Z,0.50
2022-10-26T10:50:35.626Z,1.00
2022-10-26T10:51:40.118Z,1.00
2022-10-26T10:52:44.325Z,1.00
2022-10-26T10:53:49.042Z,1.00
2022-10-26T10:54:53.268Z,0.75
2022-10-26T10:55:57.620Z,0.50
2022-10-26T10:57:01.651Z,0.50
2022-10-26T10:58:05.773Z,0.00
2022-10-26T10:59:10.065Z,0.50
2022-10-26T11:00:14.495Z,0.50
2022-10-26T11:01:19.227Z,0.50
2022-10-26T11:02:23.407Z,0.50
2022-10-26T11:03:27.503Z,1.00
2022-10-26T11:04:31.712Z,0.50
2022-10-26T11:05:35.816Z,0.00
2022-10-26T11:06:39.928Z,0.00
2022-10-26T11:07:44.230Z,0.00
2022-10-26T11:08:48.425Z,0.00
2022-10-26T11:10:56.431Z,0.50
2022-10-26T11:12:00.641Z,0.50
2022-10-26T11:13:04.850Z,0.00
2022-10-26T11:14:09.056Z,0.50
2022-10-26T11:15:12.998Z,0.50
2022-10-26T11:16:16.869Z,0.25
2022-10-26T11:17:21.047Z,0.00
2022-10-26T11:18:25.225Z,0.00
2022-10-26T11:19:29.262Z,0.00
2022-10-26T11:20:33.179Z,0.00
2022-10-26T11:21:37.467Z,0.00
2022-10-26T11:22:41.780Z,0.00
2022-10-26T11:23:45.880Z,0.00
2022-10-26T11:24:50.087Z,0.00
2022-10-26T11:25:54.257Z,0.50
2022-10-26T11:26:58.502Z,1.00
2022-10-26T11:28:02.598Z,0.50
2022-10-26T11:29:06.582Z,0.00
2022-10-26T11:30:10.615Z,0.00
2022-10-26T11:31:14.726Z,0.00
2022-10-26T11:32:18.918Z,0.00
2022-10-26T11:33:23.015Z,1.25
2022-10-26T11:34:27.014Z,1.00
2022-10-26T11:35:30.913Z,0.50
2022-10-26T11:36:35.027Z,0.00
2022-10-26T11:38:56.323Z,0.00
2022-10-26T11:39:48.763Z,0.75
2022-10-26T11:40:52.760Z,1.00
2022-10-26T11:41:57.168Z,0.00
2022-10-26T11:43:01.586Z,0.50
2022-10-26T11:44:06.006Z,0.50
2022-10-26T11:45:10.613Z,0.00
2022-10-26T11:46:16.690Z,0.00
2022-10-26T11:47:20.553Z,0.50
2022-10-26T11:48:24.695Z,0.00
2022-10-26T11:49:28.659Z,0.75
2022-10-26T11:50:32.559Z,0.00
2022-10-26T11:51:36.865Z,0.50
2022-10-26T11:52:41.276Z,1.00
2022-10-26T11:53:45.589Z,0.00
2022-10-26T11:54:49.611Z,0.00
2022-10-26T11:55:53.717Z,0.00
2022-10-26T11:56:57.811Z,0.00
2022-10-26T11:58:02.108Z,0.00
2022-10-26T11:59:06.311Z,0.00
2022-10-26T12:00:10.621Z,0.00
2022-10-26T12:01:14.867Z,0.00
2022-10-26T12:02:19.024Z,0.00
2022-10-26T12:03:23.233Z,0.00
2022-10-26T12:04:27.231Z,0.00
2022-10-26T12:05:31.218Z,0.00
2022-10-26T12:06:35.242Z,1.00
2022-10-26T12:07:39.383Z,1.00
2022-10-26T12:08:44.247Z,0.50
2022-10-26T12:09:48.160Z,0.00
2022-10-26T12:10:52.362Z,0.00
2022-10-26T12:11:56.582Z,0.00
2022-10-26T12:13:00.572Z,0.00
2022-10-26T12:14:04.984Z,0.50
2022-10-26T12:15:09.396Z,0.50
2022-10-26T12:16:13.391Z,0.00
2022-10-26T12:17:17.494Z,0.25
2022-10-26T12:18:36.785Z,0.00
2022-10-26T12:20:30.632Z,0.50
2022-10-26T12:21:34.954Z,0.50
2022-10-26T12:22:39.142Z,0.00
2022-10-26T12:23:51.478Z,0.00
2022-10-26T12:24:48.244Z,0.00
2022-10-26T12:25:52.682Z,0.50
2022-10-26T12:26:57.094Z,0.75
2022-10-26T12:28:01.416Z,0.50
2022-10-26T12:29:05.408Z,0.75
2022-10-26T12:30:09.966Z,1.25
2022-10-26T12:31:14.444Z,1.00
2022-10-26T12:32:19.146Z,0.50
2022-10-26T12:33:23.555Z,0.00
2022-10-26T12:34:27.758Z,0.00
2022-10-26T12:35:31.976Z,0.50
2022-10-26T12:36:36.278Z,0.00
2022-10-26T12:37:40.687Z,0.00
2022-10-26T12:38:44.972Z,0.00
2022-10-26T12:39:48.892Z,0.00
2022-10-26T12:40:52.922Z,0.00
2022-10-26T12:41:56.998Z,0.00
2022-10-26T12:43:01.227Z,0.00
2022-10-26T12:44:09.016Z,0.25
2022-10-26T12:45:10.627Z,0.00
2022-10-26T12:46:14.527Z,0.00
2022-10-26T12:47:18.421Z,0.00
2022-10-26T12:48:34.839Z,0.00
2022-10-26T12:49:27.264Z,0.00
2022-10-26T12:50:31.160Z,0.00
2022-10-26T12:51:39.563Z,0.00
2022-10-26T12:52:40.181Z,0.00
2022-10-26T12:53:45.980Z,0.00
2022-10-26T12:54:49.315Z,0.00
2022-10-26T12:55:53.308Z,0.50
2022-10-26T12:56:57.227Z,0.75
2022-10-26T12:58:01.278Z,0.00
2022-10-26T12:59:05.414Z,0.50
2022-10-26T13:00:09.525Z,1.00
2022-10-26T13:01:13.771Z,1.00
2022-10-26T13:02:17.832Z,1.00
2022-10-26T13:03:21.953Z,1.00
2022-10-26T13:04:25.852Z,1.00
2022-10-26T13:05:29.934Z,0.50
2022-10-26T13:06:34.153Z,0.00
2022-10-26T13:07:38.269Z,0.00
2022-10-26T13:08:42.351Z,0.00
2022-10-26T13:09:46.382Z,0.00
2022-10-26T13:10:50.370Z,0.00
2022-10-26T13:11:54.670Z,0.50
2022-10-26T13:12:58.793Z,0.00
2022-10-26T13:14:02.766Z,0.50
2022-10-26T13:15:06.903Z,0.50
2022-10-26T13:16:11.176Z,0.50
2022-10-26T13:17:15.311Z,1.00
2022-10-26T13:18:19.412Z,1.25
2022-10-26T13:19:24.074Z,1.00
2022-10-26T13:20:28.413Z,1.00
2022-10-26T13:21:32.507Z,0.50
2022-10-26T13:22:36.412Z,0.50
2022-10-26T13:23:43.603Z,0.25
2022-10-26T13:24:47.894Z,0.00
2022-10-26T13:26:56.000Z,0.50
2022-10-26T13:28:00.526Z,0.00
2022-10-26T13:29:04.615Z,0.00
2022-10-26T13:30:08.636Z,0.00
2022-10-26T13:31:12.511Z,0.25
2022-10-26T13:32:16.629Z,0.00
2022-10-26T13:33:20.822Z,0.00
2022-10-26T13:34:25.029Z,0.00
2022-10-26T13:35:29.332Z,0.50
2022-10-26T13:36:33.302Z,0.00
2022-10-26T13:37:37.264Z,0.50
2022-10-26T13:38:41.543Z,0.00
2022-10-26T13:39:45.750Z,0.00
2022-10-26T13:40:49.960Z,0.00
2022-10-26T13:41:54.061Z,1.00
2022-10-26T13:42:58.272Z,0.50
2022-10-26T13:44:02.365Z,0.00
2022-10-26T13:45:06.591Z,0.00
2022-10-26T13:46:10.785Z,0.25
2022-10-26T13:47:14.896Z,1.00
2022-10-26T13:48:19.086Z,1.00
2022-10-26T13:49:23.204Z,1.00
2022-10-26T13:50:28.846Z,1.00
2022-10-26T13:51:32.321Z,0.50
2022-10-26T13:52:36.333Z,0.50
2022-10-26T13:53:41.324Z,1.00
2022-10-26T13:54:45.759Z,0.50
2022-10-26T13:55:49.886Z,0.25
2022-10-26T13:56:54.172Z,0.00
2022-10-26T13:57:58.619Z,0.75
2022-10-26T13:59:03.001Z,0.50
2022-10-26T14:00:07.447Z,0.50
2022-10-26T14:01:11.934Z,0.75
2022-10-26T14:02:16.222Z,0.50
2022-10-26T14:03:20.429Z,0.50
2022-10-26T14:04:24.532Z,0.00
2022-10-26T14:05:28.742Z,0.00
2022-10-26T14:06:32.951Z,0.50
2022-10-26T14:07:37.095Z,0.50
2022-10-26T14:08:41.169Z,0.50
2022-10-26T14:09:45.459Z,0.00
2022-10-26T14:10:49.976Z,0.00
2022-10-26T14:11:54.488Z,1.00
2022-10-26T14:12:58.697Z,0.75
2022-10-26T14:14:02.911Z,0.50
2022-10-26T14:15:07.001Z,0.50
2022-10-26T14:16:13.040Z,0.50
2022-10-26T14:17:16.536Z,0.00
2022-10-26T14:18:20.952Z,0.00
2022-10-26T14:19:25.160Z,0.00
2022-10-26T14:20:29.363Z,0.00
2022-10-26T14:21:33.462Z,0.50
2022-10-26T14:22:37.680Z,0.00
2022-10-26T14:23:42.100Z,0.75
2022-10-26T14:24:47.616Z,0.50
2022-10-26T14:25:58.570Z,0.50
2022-10-26T14:26:56.779Z,1.00